sensor_id;sensor_type;location;lat;lon;timestamp;pressure;altitude;pressure_sealevel;temperature;humidity
43326;BME280;28920;59.862;30.636;2022-07-25T00:01:31;100667.06;;;16.27;100.00
43326;BME280;28920;59.862;30.636;2022-07-25T00:04:00;100666.22;;;16.26;100.00
43326;BME280;28920;59.862;30.636;2022-07-25T00:06:28;100662.53;;;16.27;100.00
43326;BME280;28920;59.862;30.636;2022-07-25T00:08:58;100662.06;;;16.32;100.00
43326;BME280;28920;59.862;30.636;2022-07-25T00:11:26;100658.50;;;16.32;100.00
43326;BME280;28920;59.862;30.636;2022-07-25T00:13:54;100647.59;;;16.33;100.00
43326;BME280;28920;59.862;30.636;2022-07-25T00:16:22;100660.19;;;16.33;100.00
43326;BME280;28920;59.862;30.636;2022-07-25T00:18:50;100661.59;;;16.37;100.00
43326;BME280;28920;59.862;30.636;2022-07-25T00:21:18;100665.28;;;16.36;100.00
43326;BME280;28920;59.862;30.636;2022-07-25T00:23:47;100653.84;;;16.34;100.00
43326;BME280;28920;59.862;30.636;2022-07-25T00:26:17;100657.91;;;16.38;100.00
43326;BME280;28920;59.862;30.636;2022-07-25T00:28:45;100656.22;;;16.37;100.00
43326;BME280;28920;59.862;30.636;2022-07-25T00:31:13;100659.59;;;16.39;100.00
43326;BME280;28920;59.862;30.636;2022-07-25T00:33:41;100648.47;;;16.34;100.00
43326;BME280;28920;59.862;30.636;2022-07-25T00:36:09;100645.44;;;16.37;100.00
43326;BME280;28920;59.862;30.636;2022-07-25T00:38:37;100650.50;;;16.40;100.00
43326;BME280;28920;59.862;30.636;2022-07-25T00:41:06;100644.59;;;16.36;100.00
43326;BME280;28920;59.862;30.636;2022-07-25T00:43:35;100639.06;;;16.38;100.00
43326;BME280;28920;59.862;30.636;2022-07-25T00:46:03;100636.69;;;16.35;100.00
43326;BME280;28920;59.862;30.636;2022-07-25T00:48:32;100632.59;;;16.31;100.00
43326;BME280;28920;59.862;30.636;2022-07-25T00:51:00;100629.91;;;16.31;100.00
43326;BME280;28920;59.862;30.636;2022-07-25T00:53:28;100633.91;;;16.26;100.00
43326;BME280;28920;59.862;30.636;2022-07-25T00:55:56;100627.13;;;16.22;100.00
43326;BME280;28920;59.862;30.636;2022-07-25T00:58:24;100626.44;;;16.20;100.00
43326;BME280;28920;59.862;30.636;2022-07-25T01:00:54;100627.47;;;16.19;100.00
43326;BME280;28920;59.862;30.636;2022-07-25T01:03:22;100622.41;;;16.16;100.00
43326;BME280;28920;59.862;30.636;2022-07-25T01:05:51;100615.47;;;16.13;100.00
43326;BME280;28920;59.862;30.636;2022-07-25T01:08:20;100614.56;;;16.05;100.00
43326;BME280;28920;59.862;30.636;2022-07-25T01:10:48;100625.69;;;16.10;100.00
43326;BME280;28920;59.862;30.636;2022-07-25T01:13:17;100628.56;;;16.08;100.00
43326;BME280;28920;59.862;30.636;2022-07-25T01:15:45;100626.00;;;16.07;100.00
43326;BME280;28920;59.862;30.636;2022-07-25T01:18:16;100629.53;;;16.07;100.00
43326;BME280;28920;59.862;30.636;2022-07-25T01:20:46;100625.16;;;16.06;100.00
43326;BME280;28920;59.862;30.636;2022-07-25T01:23:14;100630.72;;;16.05;100.00
43326;BME280;28920;59.862;30.636;2022-07-25T01:25:42;100635.38;;;16.03;100.00
43326;BME280;28920;59.862;30.636;2022-07-25T01:28:11;100636.09;;;16.05;100.00
43326;BME280;28920;59.862;30.636;2022-07-25T01:30:39;100631.53;;;16.05;100.00
43326;BME280;28920;59.862;30.636;2022-07-25T01:33:07;100637.47;;;16.09;100.00
43326;BME280;28920;59.862;30.636;2022-07-25T01:35:35;100646.38;;;16.09;100.00
43326;BME280;28920;59.862;30.636;2022-07-25T01:38:05;100646.22;;;16.11;100.00
43326;BME280;28920;59.862;30.636;2022-07-25T01:40:33;100640.28;;;16.07;100.00
43326;BME280;28920;59.862;30.636;2022-07-25T01:43:01;100657.28;;;16.08;100.00
43326;BME280;28920;59.862;30.636;2022-07-25T01:45:29;100652.50;;;16.02;100.00
43326;BME280;28920;59.862;30.636;2022-07-25T01:47:57;100646.31;;;16.01;100.00
43326;BME280;28920;59.862;30.636;2022-07-25T01:50:26;100651.69;;;16.01;100.00
43326;BME280;28920;59.862;30.636;2022-07-25T01:52:54;100643.44;;;16.03;100.00
43326;BME280;28920;59.862;30.636;2022-07-25T01:55:24;100642.28;;;16.05;100.00
43326;BME280;28920;59.862;30.636;2022-07-25T01:57:52;100641.47;;;16.05;100.00
43326;BME280;28920;59.862;30.636;2022-07-25T02:00:20;100649.22;;;16.08;100.00
43326;BME280;28920;59.862;30.636;2022-07-25T02:02:48;100644.69;;;16.08;100.00
43326;BME280;28920;59.862;30.636;2022-07-25T02:05:36;100644.53;;;16.10;100.00
43326;BME280;28920;59.862;30.636;2022-07-25T02:08:05;100647.75;;;16.13;100.00
43326;BME280;28920;59.862;30.636;2022-07-25T02:10:34;100650.44;;;16.13;100.00
43326;BME280;28920;59.862;30.636;2022-07-25T02:13:02;100650.59;;;16.12;100.00
43326;BME280;28920;59.862;30.636;2022-07-25T02:15:31;100655.97;;;16.12;100.00
43326;BME280;28920;59.862;30.636;2022-07-25T02:17:58;100654.47;;;16.09;100.00
43326;BME280;28920;59.862;30.636;2022-07-25T02:20:26;100648.22;;;16.09;100.00
43326;BME280;28920;59.862;30.636;2022-07-25T02:22:55;100652.78;;;16.08;100.00
43326;BME280;28920;59.862;30.636;2022-07-25T02:25:23;100658.66;;;16.12;100.00
43326;BME280;28920;59.862;30.636;2022-07-25T02:27:52;100647.63;;;16.15;100.00
43326;BME280;28920;59.862;30.636;2022-07-25T02:30:21;100644.06;;;16.14;100.00
43326;BME280;28920;59.862;30.636;2022-07-25T02:32:49;100652.69;;;16.18;100.00
43326;BME280;28920;59.862;30.636;2022-07-25T02:35:17;100654.06;;;16.22;100.00
43326;BME280;28920;59.862;30.636;2022-07-25T02:37:46;100642.25;;;16.15;100.00
43326;BME280;28920;59.862;30.636;2022-07-25T02:40:13;100657.16;;;16.27;100.00
43326;BME280;28920;59.862;30.636;2022-07-25T02:42:44;100651.63;;;16.29;100.00
43326;BME280;28920;59.862;30.636;2022-07-25T02:45:14;100656.53;;;16.34;100.00
43326;BME280;28920;59.862;30.636;2022-07-25T02:47:42;100656.38;;;16.35;100.00
43326;BME280;28920;59.862;30.636;2022-07-25T02:50:10;100658.59;;;16.40;100.00
43326;BME280;28920;59.862;30.636;2022-07-25T02:52:38;100658.97;;;16.45;100.00
43326;BME280;28920;59.862;30.636;2022-07-25T02:55:07;100661.22;;;16.50;100.00
43326;BME280;28920;59.862;30.636;2022-07-25T02:57:35;100659.06;;;16.53;100.00
43326;BME280;28920;59.862;30.636;2022-07-25T03:00:05;100661.97;;;16.60;100.00
43326;BME280;28920;59.862;30.636;2022-07-25T03:02:35;100663.31;;;16.64;100.00
43326;BME280;28920;59.862;30.636;2022-07-25T03:05:05;100666.03;;;16.64;100.00
43326;BME280;28920;59.862;30.636;2022-07-25T03:07:33;100662.19;;;16.67;100.00
43326;BME280;28920;59.862;30.636;2022-07-25T03:10:03;100662.19;;;16.67;100.00
43326;BME280;28920;59.862;30.636;2022-07-25T03:12:31;100663.87;;;16.68;100.00
43326;BME280;28920;59.862;30.636;2022-07-25T03:15:00;100662.72;;;16.71;100.00
43326;BME280;28920;59.862;30.636;2022-07-25T03:17:28;100673.50;;;16.71;100.00
43326;BME280;28920;59.862;30.636;2022-07-25T03:19:58;100672.31;;;16.73;100.00
43326;BME280;28920;59.862;30.636;2022-07-25T03:22:26;100666.91;;;16.73;100.00
43326;BME280;28920;59.862;30.636;2022-07-25T03:24:54;100674.72;;;16.76;100.00
43326;BME280;28920;59.862;30.636;2022-07-25T03:27:23;100666.91;;;16.73;100.00
43326;BME280;28920;59.862;30.636;2022-07-25T03:29:51;100664.94;;;16.75;100.00
43326;BME280;28920;59.862;30.636;2022-07-25T03:32:19;100664.94;;;16.75;100.00
43326;BME280;28920;59.862;30.636;2022-07-25T03:34:49;100674.03;;;16.74;100.00
43326;BME280;28920;59.862;30.636;2022-07-25T03:37:18;100670.31;;;16.75;100.00
43326;BME280;28920;59.862;30.636;2022-07-25T03:39:46;100672.47;;;16.72;100.00
43326;BME280;28920;59.862;30.636;2022-07-25T03:42:15;100669.78;;;16.72;100.00
43326;BME280;28920;59.862;30.636;2022-07-25T03:44:43;100674.50;;;16.69;100.00
43326;BME280;28920;59.862;30.636;2022-07-25T03:47:11;100672.62;;;16.70;100.00
43326;BME280;28920;59.862;30.636;2022-07-25T03:49:39;100684.78;;;16.74;100.00
43326;BME280;28920;59.862;30.636;2022-07-25T03:52:07;100682.47;;;16.79;100.00
43326;BME280;28920;59.862;30.636;2022-07-25T03:54:37;100675.78;;;16.83;100.00
43326;BME280;28920;59.862;30.636;2022-07-25T03:57:05;100678.16;;;16.87;100.00
43326;BME280;28920;59.862;30.636;2022-07-25T03:59:33;100680.50;;;16.90;100.00
43326;BME280;28920;59.862;30.636;2022-07-25T04:02:01;100680.91;;;16.95;100.00
43326;BME280;28920;59.862;30.636;2022-07-25T04:04:30;100672.19;;;17.01;100.00
43326;BME280;28920;59.862;30.636;2022-07-25T04:06:57;100685.03;;;17.07;100.00
43326;BME280;28920;59.862;30.636;2022-07-25T04:09:25;100683.56;;;17.13;100.00
43326;BME280;28920;59.862;30.636;2022-07-25T04:11:55;100686.44;;;17.20;100.00
43326;BME280;28920;59.862;30.636;2022-07-25T04:14:23;100685.44;;;17.21;100.00
43326;BME280;28920;59.862;30.636;2022-07-25T04:16:51;100681.44;;;17.25;100.00
43326;BME280;28920;59.862;30.636;2022-07-25T04:19:20;100676.06;;;17.25;100.00
43326;BME280;28920;59.862;30.636;2022-07-25T04:21:48;100687.19;;;17.30;100.00
43326;BME280;28920;59.862;30.636;2022-07-25T04:24:16;100683.31;;;17.33;100.00
43326;BME280;28920;59.862;30.636;2022-07-25T04:26:44;100681.84;;;17.38;100.00
43326;BME280;28920;59.862;30.636;2022-07-25T04:29:14;100676.97;;;17.42;100.00
43326;BME280;28920;59.862;30.636;2022-07-25T04:31:42;100677.69;;;17.52;100.00
43326;BME280;28920;59.862;30.636;2022-07-25T04:34:10;100674.53;;;17.65;100.00
43326;BME280;28920;59.862;30.636;2022-07-25T04:36:38;100678.47;;;17.79;100.00
43326;BME280;28920;59.862;30.636;2022-07-25T04:39:06;100671.91;;;17.90;100.00
43326;BME280;28920;59.862;30.636;2022-07-25T04:41:34;100667.87;;;18.03;100.00
43326;BME280;28920;59.862;30.636;2022-07-25T04:44:03;100674.00;;;18.13;100.00
43326;BME280;28920;59.862;30.636;2022-07-25T04:46:34;100664.41;;;18.27;100.00
43326;BME280;28920;59.862;30.636;2022-07-25T04:49:02;100662.56;;;18.36;100.00
43326;BME280;28920;59.862;30.636;2022-07-25T04:51:30;100665.75;;;18.48;100.00
43326;BME280;28920;59.862;30.636;2022-07-25T04:53:58;100667.28;;;18.59;100.00
43326;BME280;28920;59.862;30.636;2022-07-25T04:56:27;100662.19;;;18.72;100.00
43326;BME280;28920;59.862;30.636;2022-07-25T04:58:55;100666.25;;;18.85;100.00
43326;BME280;28920;59.862;30.636;2022-07-25T05:01:23;100666.91;;;18.95;100.00
43326;BME280;28920;59.862;30.636;2022-07-25T05:03:53;100672.28;;;19.12;100.00
43326;BME280;28920;59.862;30.636;2022-07-25T05:06:21;100678.00;;;19.25;100.00
43326;BME280;28920;59.862;30.636;2022-07-25T05:08:49;100670.47;;;19.52;100.00
43326;BME280;28920;59.862;30.636;2022-07-25T05:11:17;100664.56;;;19.80;100.00
43326;BME280;28920;59.862;30.636;2022-07-25T05:13:45;100666.19;;;19.98;100.00
43326;BME280;28920;59.862;30.636;2022-07-25T05:16:13;100667.09;;;20.13;100.00
43326;BME280;28920;59.862;30.636;2022-07-25T05:18:42;100657.19;;;20.29;100.00
43326;BME280;28920;59.862;30.636;2022-07-25T05:21:11;100644.81;;;20.50;100.00
43326;BME280;28920;59.862;30.636;2022-07-25T05:23:39;100663.84;;;20.80;100.00
43326;BME280;28920;59.862;30.636;2022-07-25T05:26:08;100660.34;;;20.94;100.00
43326;BME280;28920;59.862;30.636;2022-07-25T05:28:36;100656.72;;;21.02;100.00
43326;BME280;28920;59.862;30.636;2022-07-25T05:31:04;100659.59;;;21.16;100.00
43326;BME280;28920;59.862;30.636;2022-07-25T05:33:33;100658.78;;;21.15;100.00
43326;BME280;28920;59.862;30.636;2022-07-25T05:36:01;100653.91;;;21.25;100.00
43326;BME280;28920;59.862;30.636;2022-07-25T05:38:32;100654.94;;;21.24;100.00
43326;BME280;28920;59.862;30.636;2022-07-25T05:41:00;100657.53;;;21.33;100.00
43326;BME280;28920;59.862;30.636;2022-07-25T05:43:28;100656.78;;;21.39;100.00
43326;BME280;28920;59.862;30.636;2022-07-25T05:45:59;100662.88;;;21.26;100.00
43326;BME280;28920;59.862;30.636;2022-07-25T05:48:28;100661.28;;;21.02;100.00
43326;BME280;28920;59.862;30.636;2022-07-25T05:50:57;100660.91;;;20.90;100.00
43326;BME280;28920;59.862;30.636;2022-07-25T05:53:25;100654.00;;;21.17;100.00
43326;BME280;28920;59.862;30.636;2022-07-25T05:55:55;100666.16;;;21.21;100.00
43326;BME280;28920;59.862;30.636;2022-07-25T05:58:23;100661.66;;;21.29;100.00
43326;BME280;28920;59.862;30.636;2022-07-25T06:00:52;100664.09;;;21.23;100.00
43326;BME280;28920;59.862;30.636;2022-07-25T06:03:21;100666.63;;;21.25;100.00
43326;BME280;28920;59.862;30.636;2022-07-25T06:05:49;100658.31;;;21.26;100.00
43326;BME280;28920;59.862;30.636;2022-07-25T06:08:16;100668.13;;;21.43;100.00
43326;BME280;28920;59.862;30.636;2022-07-25T06:10:45;100667.66;;;21.39;100.00
43326;BME280;28920;59.862;30.636;2022-07-25T06:13:14;100661.38;;;21.23;100.00
43326;BME280;28920;59.862;30.636;2022-07-25T06:15:42;100664.47;;;21.05;100.00
43326;BME280;28920;59.862;30.636;2022-07-25T06:18:10;100671.84;;;20.96;100.00
43326;BME280;28920;59.862;30.636;2022-07-25T06:20:38;100669.97;;;20.82;100.00
43326;BME280;28920;59.862;30.636;2022-07-25T06:23:07;100671.09;;;20.64;100.00
43326;BME280;28920;59.862;30.636;2022-07-25T06:25:35;100681.78;;;20.42;100.00
43326;BME280;28920;59.862;30.636;2022-07-25T06:28:03;100676.69;;;20.24;100.00
43326;BME280;28920;59.862;30.636;2022-07-25T06:30:33;100668.13;;;20.12;100.00
43326;BME280;28920;59.862;30.636;2022-07-25T06:33:01;100680.22;;;20.01;100.00
43326;BME280;28920;59.862;30.636;2022-07-25T06:35:29;100686.84;;;19.91;100.00
43326;BME280;28920;59.862;30.636;2022-07-25T06:37:57;100694.31;;;19.88;100.00
43326;BME280;28920;59.862;30.636;2022-07-25T06:40:26;100689.22;;;19.94;100.00
43326;BME280;28920;59.862;30.636;2022-07-25T06:42:54;100685.16;;;19.98;100.00
43326;BME280;28920;59.862;30.636;2022-07-25T06:45:22;100684.50;;;19.96;100.00
43326;BME280;28920;59.862;30.636;2022-07-25T06:47:52;100685.81;;;20.00;100.00
43326;BME280;28920;59.862;30.636;2022-07-25T06:50:20;100684.50;;;19.96;100.00
43326;BME280;28920;59.862;30.636;2022-07-25T06:52:48;100681.09;;;19.94;100.00
43326;BME280;28920;59.862;30.636;2022-07-25T06:55:16;100685.81;;;20.00;100.00
43326;BME280;28920;59.862;30.636;2022-07-25T06:57:44;100690.53;;;20.06;100.00
43326;BME280;28920;59.862;30.636;2022-07-25T07:00:13;100691.47;;;20.13;100.00
43326;BME280;28920;59.862;30.636;2022-07-25T07:02:53;100693.78;;;20.25;100.00
43326;BME280;28920;59.862;30.636;2022-07-25T07:05:23;100686.53;;;20.17;100.00
43326;BME280;28920;59.862;30.636;2022-07-25T07:07:55;100682.62;;;20.20;100.00
43326;BME280;28920;59.862;30.636;2022-07-25T07:10:24;100672.34;;;20.15;100.00
43326;BME280;28920;59.862;30.636;2022-07-25T07:13:02;100682.47;;;20.21;100.00
43326;BME280;28920;59.862;30.636;2022-07-25T07:15:30;100692.22;;;20.07;100.00
43326;BME280;28920;59.862;30.636;2022-07-25T07:18:00;100689.66;;;20.06;100.00
43326;BME280;28920;59.862;30.636;2022-07-25T07:20:28;100690.53;;;20.06;100.00
43326;BME280;28920;59.862;30.636;2022-07-25T07:22:56;100692.88;;;20.09;100.00
43326;BME280;28920;59.862;30.636;2022-07-25T07:25:25;100696.56;;;20.16;100.00
43326;BME280;28920;59.862;30.636;2022-07-25T07:27:53;100693.97;;;20.23;100.00
43326;BME280;28920;59.862;30.636;2022-07-25T07:30:21;100690.72;;;20.28;100.00
43326;BME280;28920;59.862;30.636;2022-07-25T07:32:52;100685.94;;;20.30;100.00
43326;BME280;28920;59.862;30.636;2022-07-25T07:35:21;100694.72;;;20.55;100.00
43326;BME280;28920;59.862;30.636;2022-07-25T07:37:51;100693.09;;;20.69;100.00
43326;BME280;28920;59.862;30.636;2022-07-25T07:40:20;100685.78;;;21.23;100.00
43326;BME280;28920;59.862;30.636;2022-07-25T07:42:49;100676.75;;;21.98;100.00
43326;BME280;28920;59.862;30.636;2022-07-25T07:45:19;100684.31;;;22.46;100.00
43326;BME280;28920;59.862;30.636;2022-07-25T07:47:48;100696.12;;;22.54;100.00
43326;BME280;28920;59.862;30.636;2022-07-25T07:50:18;100697.06;;;22.46;100.00
43326;BME280;28920;59.862;30.636;2022-07-25T07:52:50;100695.47;;;22.51;100.00
43326;BME280;28920;59.862;30.636;2022-07-25T07:55:19;100700.72;;;22.53;100.00
43326;BME280;28920;59.862;30.636;2022-07-25T07:58:04;100694.34;;;22.46;100.00
43326;BME280;28920;59.862;30.636;2022-07-25T08:00:33;100699.13;;;22.44;100.00
43326;BME280;28920;59.862;30.636;2022-07-25T08:03:06;100698.88;;;22.38;100.00
43326;BME280;28920;59.862;30.636;2022-07-25T08:05:36;100701.72;;;22.30;100.00
43326;BME280;28920;59.862;30.636;2022-07-25T08:08:08;100699.47;;;22.34;100.00
43326;BME280;28920;59.862;30.636;2022-07-25T08:10:38;100704.03;;;22.33;100.00
43326;BME280;28920;59.862;30.636;2022-07-25T08:13:12;100705.34;;;22.37;100.00
43326;BME280;28920;59.862;30.636;2022-07-25T08:15:41;100704.13;;;22.40;100.00
43326;BME280;28920;59.862;30.636;2022-07-25T08:18:10;100703.06;;;22.56;100.00
43326;BME280;28920;59.862;30.636;2022-07-25T08:20:38;100699.41;;;22.71;100.00
43326;BME280;28920;59.862;30.636;2022-07-25T08:23:08;100703.06;;;22.85;100.00
43326;BME280;28920;59.862;30.636;2022-07-25T08:25:38;100694.53;;;23.23;100.00
43326;BME280;28920;59.862;30.636;2022-07-25T08:28:06;100710.12;;;23.85;100.00
43326;BME280;28920;59.862;30.636;2022-07-25T08:30:36;100709.97;;;24.00;100.00
43326;BME280;28920;59.862;30.636;2022-07-25T08:33:06;100711.50;;;24.09;100.00
43326;BME280;28920;59.862;30.636;2022-07-25T08:35:35;100716.16;;;24.22;99.68
43326;BME280;28920;59.862;30.636;2022-07-25T08:38:05;100713.03;;;24.32;100.00
43326;BME280;28920;59.862;30.636;2022-07-25T08:40:35;100713.28;;;24.84;100.00
43326;BME280;28920;59.862;30.636;2022-07-25T08:43:03;100707.78;;;25.25;96.51
43326;BME280;28920;59.862;30.636;2022-07-25T08:45:32;100717.38;;;25.48;89.37
43326;BME280;28920;59.862;30.636;2022-07-25T08:48:00;100710.41;;;25.65;89.09
43326;BME280;28920;59.862;30.636;2022-07-25T08:50:28;100709.53;;;25.72;89.50
43326;BME280;28920;59.862;30.636;2022-07-25T08:52:57;100709.16;;;25.61;91.05
43326;BME280;28920;59.862;30.636;2022-07-25T08:55:24;100710.47;;;25.52;91.65
43326;BME280;28920;59.862;30.636;2022-07-25T08:57:55;100713.44;;;25.30;89.89
43326;BME280;28920;59.862;30.636;2022-07-25T09:00:26;100706.88;;;25.45;92.90
43326;BME280;28920;59.862;30.636;2022-07-25T09:02:57;100711.47;;;25.64;89.82
43326;BME280;28920;59.862;30.636;2022-07-25T09:05:26;100712.88;;;26.26;90.99
43326;BME280;28920;59.862;30.636;2022-07-25T09:07:55;100711.06;;;25.61;88.64
43326;BME280;28920;59.862;30.636;2022-07-25T09:10:24;100718.75;;;24.98;89.35
43326;BME280;28920;59.862;30.636;2022-07-25T09:12:56;100720.22;;;24.80;90.80
43326;BME280;28920;59.862;30.636;2022-07-25T09:15:26;100708.25;;;24.88;90.62
43326;BME280;28920;59.862;30.636;2022-07-25T09:17:56;100724.41;;;24.96;90.61
43326;BME280;28920;59.862;30.636;2022-07-25T09:20:36;100734.88;;;25.20;89.23
43326;BME280;28920;59.862;30.636;2022-07-25T09:23:04;100729.00;;;25.16;89.27
43326;BME280;28920;59.862;30.636;2022-07-25T09:25:32;100732.16;;;24.93;90.43
43326;BME280;28920;59.862;30.636;2022-07-25T09:28:15;100744.12;;;25.05;91.74
43326;BME280;28920;59.862;30.636;2022-07-25T09:30:54;100737.41;;;25.21;94.25
43326;BME280;28920;59.862;30.636;2022-07-25T09:33:23;100726.28;;;25.09;92.12
43326;BME280;28920;59.862;30.636;2022-07-25T09:35:52;100748.34;;;25.01;91.38
43326;BME280;28920;59.862;30.636;2022-07-25T09:38:22;100732.34;;;25.32;91.46
43326;BME280;28920;59.862;30.636;2022-07-25T09:40:54;100748.69;;;25.45;91.26
43326;BME280;28920;59.862;30.636;2022-07-25T09:43:34;100744.12;;;25.05;91.90
43326;BME280;28920;59.862;30.636;2022-07-25T09:46:03;100747.88;;;24.57;93.17
43326;BME280;28920;59.862;30.636;2022-07-25T09:48:31;100742.25;;;24.79;95.45
43326;BME280;28920;59.862;30.636;2022-07-25T09:51:00;100730.06;;;24.95;93.57
43326;BME280;28920;59.862;30.636;2022-07-25T09:53:29;100726.91;;;24.84;93.54
43326;BME280;28920;59.862;30.636;2022-07-25T09:55:57;100747.44;;;24.40;91.77
43326;BME280;28920;59.862;30.636;2022-07-25T09:58:27;100747.62;;;24.38;94.87
43326;BME280;28920;59.862;30.636;2022-07-25T10:01:00;100739.28;;;24.73;92.31
43326;BME280;28920;59.862;30.636;2022-07-25T10:03:41;100741.19;;;25.27;94.83
43326;BME280;28920;59.862;30.636;2022-07-25T10:06:18;100748.63;;;25.65;91.89
43326;BME280;28920;59.862;30.636;2022-07-25T10:08:48;100749.00;;;25.89;88.14
43326;BME280;28920;59.862;30.636;2022-07-25T10:11:19;100746.00;;;25.97;85.66
43326;BME280;28920;59.862;30.636;2022-07-25T10:13:49;100736.88;;;26.17;84.45
43326;BME280;28920;59.862;30.636;2022-07-25T10:16:19;100743.69;;;25.94;83.11
43326;BME280;28920;59.862;30.636;2022-07-25T10:18:49;100748.72;;;26.04;83.70
43326;BME280;28920;59.862;30.636;2022-07-25T10:21:18;100744.81;;;26.25;82.11
43326;BME280;28920;59.862;30.636;2022-07-25T10:23:57;100747.88;;;26.43;80.00
43326;BME280;28920;59.862;30.636;2022-07-25T10:26:26;100744.16;;;26.37;82.86
43326;BME280;28920;59.862;30.636;2022-07-25T10:28:56;100739.19;;;26.52;81.47
43326;BME280;28920;59.862;30.636;2022-07-25T10:31:25;100749.13;;;26.72;78.59
43326;BME280;28920;59.862;30.636;2022-07-25T10:34:01;100744.00;;;27.08;79.44
43326;BME280;28920;59.862;30.636;2022-07-25T10:36:41;100747.09;;;27.37;79.84
43326;BME280;28920;59.862;30.636;2022-07-25T10:39:12;100747.16;;;27.12;80.63
43326;BME280;28920;59.862;30.636;2022-07-25T10:41:41;100756.63;;;27.09;83.02
43326;BME280;28920;59.862;30.636;2022-07-25T10:44:13;100750.34;;;27.08;84.67
43326;BME280;28920;59.862;30.636;2022-07-25T10:46:43;100749.41;;;26.96;84.20
43326;BME280;28920;59.862;30.636;2022-07-25T10:49:17;100750.72;;;27.12;85.49
43326;BME280;28920;59.862;30.636;2022-07-25T10:51:54;100759.28;;;27.41;81.93
43326;BME280;28920;59.862;30.636;2022-07-25T10:54:23;100749.00;;;27.18;77.76
43326;BME280;28920;59.862;30.636;2022-07-25T10:56:54;100773.31;;;27.07;78.80
43326;BME280;28920;59.862;30.636;2022-07-25T10:59:26;100768.00;;;27.31;78.80
43326;BME280;28920;59.862;30.636;2022-07-25T11:01:55;100778.28;;;26.14;85.58
43326;BME280;28920;59.862;30.636;2022-07-25T11:04:23;100770.97;;;25.55;84.74
43326;BME280;28920;59.862;30.636;2022-07-25T11:06:51;100768.03;;;25.37;87.76
43326;BME280;28920;59.862;30.636;2022-07-25T11:09:22;100772.22;;;25.53;89.82
43326;BME280;28920;59.862;30.636;2022-07-25T11:11:52;100776.69;;;26.00;88.84
43326;BME280;28920;59.862;30.636;2022-07-25T11:14:22;100787.62;;;26.00;85.13
43326;BME280;28920;59.862;30.636;2022-07-25T11:16:53;100787.56;;;25.40;89.19
43326;BME280;28920;59.862;30.636;2022-07-25T11:19:24;100798.00;;;24.63;94.18
43326;BME280;28920;59.862;30.636;2022-07-25T11:21:53;100789.06;;;24.07;96.85
43326;BME280;28920;59.862;30.636;2022-07-25T11:24:33;100785.75;;;23.76;100.00
43326;BME280;28920;59.862;30.636;2022-07-25T11:27:01;100796.16;;;23.30;100.00
43326;BME280;28920;59.862;30.636;2022-07-25T11:29:30;100803.34;;;23.16;100.00
43326;BME280;28920;59.862;30.636;2022-07-25T11:32:02;100796.75;;;22.82;100.00
43326;BME280;28920;59.862;30.636;2022-07-25T11:34:32;100813.03;;;22.38;100.00
43326;BME280;28920;59.862;30.636;2022-07-25T11:37:02;100809.50;;;22.08;100.00
43326;BME280;28920;59.862;30.636;2022-07-25T11:39:34;100819.38;;;21.94;100.00
43326;BME280;28920;59.862;30.636;2022-07-25T11:42:03;100822.75;;;21.81;100.00
43326;BME280;28920;59.862;30.636;2022-07-25T11:44:33;100811.69;;;21.67;100.00
43326;BME280;28920;59.862;30.636;2022-07-25T11:47:05;100823.59;;;21.81;100.00
43326;BME280;28920;59.862;30.636;2022-07-25T11:49:43;100826.03;;;22.06;100.00
43326;BME280;28920;59.862;30.636;2022-07-25T11:52:21;100835.25;;;22.27;100.00
43326;BME280;28920;59.862;30.636;2022-07-25T11:54:54;100819.97;;;22.41;100.00
43326;BME280;28920;59.862;30.636;2022-07-25T11:57:23;100823.56;;;22.48;100.00
43326;BME280;28920;59.862;30.636;2022-07-25T11:59:52;100825.75;;;22.53;100.00
43326;BME280;28920;59.862;30.636;2022-07-25T12:02:23;100821.56;;;22.35;100.00
43326;BME280;28920;59.862;30.636;2022-07-25T12:04:56;100834.97;;;22.22;100.00
43326;BME280;28920;59.862;30.636;2022-07-25T12:07:41;100832.81;;;22.32;100.00
43326;BME280;28920;59.862;30.636;2022-07-25T12:10:15;100827.66;;;22.37;100.00
43326;BME280;28920;59.862;30.636;2022-07-25T12:12:45;100834.13;;;22.51;100.00
43326;BME280;28920;59.862;30.636;2022-07-25T12:15:17;100820.59;;;22.58;100.00
43326;BME280;28920;59.862;30.636;2022-07-25T12:17:47;100825.12;;;22.73;100.00
43326;BME280;28920;59.862;30.636;2022-07-25T12:20:17;100807.38;;;22.99;100.00
43326;BME280;28920;59.862;30.636;2022-07-25T12:22:47;100797.91;;;23.16;100.00
43326;BME280;28920;59.862;30.636;2022-07-25T12:25:16;100793.66;;;23.07;100.00
43326;BME280;28920;59.862;30.636;2022-07-25T12:27:44;100798.78;;;23.24;100.00
43326;BME280;28920;59.862;30.636;2022-07-25T12:30:13;100798.47;;;23.33;100.00
43326;BME280;28920;59.862;30.636;2022-07-25T12:32:42;100808.41;;;23.48;100.00
43326;BME280;28920;59.862;30.636;2022-07-25T12:35:13;100807.00;;;23.59;100.00
43326;BME280;28920;59.862;30.636;2022-07-25T12:37:42;100812.53;;;23.72;100.00
43326;BME280;28920;59.862;30.636;2022-07-25T12:40:11;100812.53;;;24.08;100.00
43326;BME280;28920;59.862;30.636;2022-07-25T12:42:39;100815.28;;;24.14;100.00
43326;BME280;28920;59.862;30.636;2022-07-25T12:45:08;100822.25;;;24.30;100.00